Sant Martí Sacalm





Hora UTC 15:45
Temperatura 6.2 ºC
Humitat 86.9 %
Pressió 1011.3 hPa
Pluja 0.0 mm
Velocitat vent 25.1 km/h
Direcció vent SW
Radiació solar 23.4 W/m²

Dades diàries 2021-12-04



Hora UTC (hivern +1h; estiu +2h)
Temperatura (ºC) Humitat (%) Pressió (hPa) Velocitat vent (km/h) Precipitació (mm) Radiació solar (W/m²)
Hora UTC Aire Humitat Pressió Vel. Dir. Vel. Max Dir. Intent. màx 5 min. Rad. Sol.
00:05 4.6 74.4 1016.1 25.7 WSW 25.7 WSW 0.0 0.1
00:10 4.5 74.4 1016.1 25.3 SW 31.1 SW 0.0 0.1
00:15 4.4 75.2 1016.1 23.3 SW 29.7 WSW 0.0 0.1
00:20 4.5 76.4 1016.1 23.6 SW 30.4 WSW 0.0 0.1
00:25 4.4 78.5 1016.1 24.9 SW 30.4 SW 0.0 0.1
00:30 4.4 79.2 1016.0 27.4 SW 34.2 WSW 0.0 0.1
00:35 4.2 82.6 1015.9 26.0 SW 32.8 WSW 0.0 0.1
00:40 4.1 84.5 1015.8 23.1 SW 28.9 SW 0.0 0.1
00:45 4.0 85.0 1015.7 22.2 SW 28.2 SW 0.0 0.1
00:50 3.8 86.3 1015.6 20.4 SW 25.4 SW 0.0 0.1
00:55 3.9 85.7 1015.6 21.0 SW 26.5 SW 0.0 0.1
01:00 4.0 84.2 1015.4 19.7 SW 25.4 SW 0.0 0.1
01:05 4.1 83.6 1015.3 18.2 SW 24.7 SW 0.0 0.1
01:10 4.0 84.7 1015.3 17.5 SW 24.0 SW 0.0 0.1
01:15 3.8 86.5 1015.2 19.0 SW 25.4 SW 0.0 0.1
01:20 3.6 87.2 1015.1 20.0 SW 26.8 SW 0.0 0.1
01:25 3.7 86.7 1015.0 20.5 SW 26.5 WSW 0.0 0.1
01:30 3.7 86.1 1015.1 20.6 SW 26.5 WSW 0.0 0.1
01:35 3.6 85.9 1015.1 18.4 WSW 24.0 WSW 0.0 0.1
01:40 3.7 85.0 1015.1 19.1 WSW 26.1 WSW 0.0 0.1
01:45 3.7 84.9 1015.1 19.0 SW 24.4 WSW 0.0 0.1
01:50 3.5 85.6 1015.1 16.5 SW 21.9 SW 0.0 0.1
01:55 3.3 86.1 1015.1 18.1 SW 24.0 SW 0.0 0.1
02:00 3.2 86.6 1015.0 19.2 SW 26.5 SW 0.0 0.1
02:05 3.2 86.5 1015.0 21.8 SW 27.5 WSW 0.0 0.1
02:10 3.2 86.3 1015.0 21.7 SW 27.2 SW 0.0 0.1
02:15 3.0 87.3 1015.0 22.8 SW 28.2 WSW 0.0 0.1
02:20 3.0 87.4 1014.9 26.4 WSW 36.4 SW 0.0 0.1
02:25 3.0 86.9 1014.9 25.2 WSW 35.3 SW 0.0 0.1
02:30 3.0 86.9 1014.8 23.6 WSW 30.4 WSW 0.0 0.1
02:35 3.3 85.3 1014.8 26.2 WSW 38.5 WSW 0.0 0.1
02:40 3.3 84.8 1014.8 26.3 WSW 36.0 SW 0.0 0.1
02:45 3.4 84.5 1014.8 26.3 WSW 36.4 SW 0.0 0.1
02:50 3.4 84.5 1014.7 30.2 WSW 41.3 WSW 0.0 0.1
02:55 3.2 86.5 1014.6 30.3 SW 41.3 WSW 0.0 0.1
03:00 3.2 87.0 1014.6 33.0 WSW 44.1 SW 0.0 0.1
03:05 3.2 87.0 1014.6 29.4 WSW 39.2 WSW 0.0 0.1
03:10 3.0 88.8 1014.4 28.8 SW 40.2 WSW 0.0 0.1
03:15 3.0 89.9 1014.5 30.4 WSW 42.4 WSW 0.0 0.1
03:20 2.9 91.8 1014.4 30.7 WSW 39.5 WSW 0.0 0.1
03:25 2.8 92.6 1014.4 29.4 WSW 38.8 WSW 0.0 0.1
03:30 2.7 92.4 1014.4 28.7 SW 34.9 WSW 0.0 0.1
03:35 2.5 92.8 1014.5 25.5 WSW 32.1 WSW 0.0 0.1
03:40 2.4 91.8 1014.6 25.9 WSW 32.8 WSW 0.0 0.1
03:45 2.5 89.9 1014.6 23.3 WSW 30.4 WSW 0.0 0.1
03:50 2.5 89.5 1014.5 21.8 WSW 30.4 WSW 0.0 0.1
03:55 2.5 89.7 1014.5 24.7 WSW 31.1 WSW 0.0 0.1
04:00 2.6 89.9 1014.4 23.2 WSW 28.9 WSW 0.0 0.1
04:05 2.6 89.6 1014.4 21.1 WSW 25.4 SW 0.0 0.1
04:10 2.6 89.8 1014.4 20.5 SW 25.1 WSW 0.0 0.1
04:15 2.6 89.8 1014.3 21.4 SW 25.4 SW 0.0 0.1
04:20 2.5 90.0 1014.2 19.6 WSW 24.7 SW 0.0 0.1
04:25 2.5 90.7 1014.2 22.8 WSW 28.9 WSW 0.0 0.1
04:30 2.3 91.7 1014.1 23.2 WSW 31.4 WSW 0.0 0.1
04:35 2.3 92.7 1014.1 26.1 WSW 33.2 SW 0.0 0.1
04:40 2.2 93.5 1014.1 23.5 WSW 29.3 WSW 0.0 0.1
04:45 2.3 93.2 1014.1 20.7 SW 26.1 SW 0.0 0.1
04:50 2.3 93.6 1014.2 20.5 SW 26.1 SW 0.0 0.1
04:55 2.2 94.3 1014.1 20.4 SW 25.8 SW 0.0 0.1
05:00 2.2 94.1 1014.0 22.0 WSW 32.1 WSW 0.0 0.1
05:05 2.3 94.5 1014.0 25.4 SW 36.7 SW 0.0 0.1
05:10 2.1 95.1 1014.0 26.6 SW 34.9 WSW 0.0 0.1
05:15 2.3 94.7 1013.9 28.5 WSW 40.2 WSW 0.0 0.1
05:20 2.3 95.0 1013.9 28.5 WSW 37.8 WSW 0.0 0.1
05:25 2.2 95.6 1014.0 25.4 WSW 36.0 WSW 0.0 0.1
05:30 2.0 95.9 1014.1 24.9 SW 34.9 WSW 0.0 0.1
05:35 2.0 95.9 1014.1 22.9 SW 28.2 SW 0.0 0.1
05:40 2.0 95.3 1014.1 23.6 SW 30.0 SW 0.0 0.1
05:45 1.9 95.8 1014.0 26.2 SW 34.9 WSW 0.0 0.1
05:50 2.1 94.8 1014.0 25.9 SW 33.2 WSW 0.0 0.1
05:55 2.1 94.5 1014.1 25.3 SW 32.5 SW 0.0 0.1
06:00 2.1 94.5 1014.2 27.2 WSW 35.7 WSW 0.0 0.1
06:05 2.3 93.5 1014.1 24.7 WSW 36.7 WSW 0.0 0.1
06:10 2.4 93.1 1014.1 23.1 WSW 33.2 W 0.0 0.1
06:15 2.4 93.2 1014.1 22.8 WSW 31.4 WSW 0.0 0.1
06:20 2.7 92.8 1014.1 24.5 WSW 37.1 WSW 0.0 0.1
06:25 2.7 92.7 1014.0 24.1 SW 32.8 SW 0.0 0.1
06:30 2.8 92.3 1013.9 21.8 SW 34.2 SW 0.0 0.1
06:35 2.8 91.8 1013.8 24.3 SW 34.2 SW 0.0 0.1
06:40 3.1 90.9 1013.9 22.0 WSW 32.1 WSW 0.0 0.2
06:45 3.3 89.6 1013.9 22.5 SW 30.7 WSW 0.0 0.3
06:50 3.3 89.8 1013.9 25.8 SW 33.5 WSW 0.0 0.8
06:55 2.9 92.1 1013.8 24.8 SW 32.5 SW 0.0 1.8
07:00 2.9 92.9 1013.8 25.8 SW 33.5 WSW 0.0 3.0
07:05 2.8 93.1 1013.8 24.3 SW 29.7 SW 0.0 4.8
07:10 2.7 93.6 1013.8 23.1 SW 30.4 SW 0.0 6.7
07:15 2.7 93.9 1013.8 25.5 SW 33.2 SW 0.0 8.6
07:20 2.7 94.0 1013.7 26.3 SW 32.5 WSW 0.0 10.6
07:25 2.7 93.7 1013.7 25.7 SW 32.1 SW 0.0 12.5
07:30 2.7 92.8 1013.7 25.4 WSW 31.4 WSW 0.0 16.1
07:35 3.0 90.9 1013.7 22.9 WSW 29.7 WSW 0.0 63.3
07:40 3.1 90.3 1013.7 24.0 WSW 32.1 W 0.0 81.9
07:45 3.3 89.7 1013.8 25.8 WSW 33.2 WSW 0.0 93.0
07:50 3.1 90.3 1013.9 20.4 SW 28.9 SW 0.0 107.1
07:55 3.2 90.4 1013.8 24.0 WSW 31.8 WSW 0.0 119.2
08:00 3.3 90.0 1013.7 26.8 SW 35.7 SW 0.0 131.3
08:05 3.4 90.1 1013.7 24.8 SW 36.0 WSW 0.0 144.2
08:10 3.5 89.5 1013.8 22.6 WSW 31.1 SW 0.0 156.0
08:15 3.7 88.9 1013.7 23.4 WSW 34.6 SW 0.0 167.1
08:20 3.8 88.6 1013.5 26.0 WSW 36.7 WSW 0.0 181.0
08:25 4.0 87.4 1013.6 25.5 WSW 35.7 WSW 0.0 196.4
08:30 4.2 86.2 1013.6 23.2 WSW 34.2 WSW 0.0 209.5
08:35 4.3 86.3 1013.6 25.0 WSW 34.6 SW 0.0 220.1
08:40 4.2 87.5 1013.5 26.5 WSW 38.8 WSW 0.0 239.7
08:45 4.2 88.4 1013.4 26.6 WSW 37.1 WSW 0.0 254.3
08:50 4.1 88.9 1013.2 28.7 WSW 39.5 WSW 0.0 234.6
08:55 4.2 88.7 1013.2 28.4 WSW 38.8 WSW 0.0 244.9
09:00 4.3 88.8 1013.2 27.0 WSW 38.8 SW 0.0 282.4
09:05 4.4 88.8 1013.2 24.2 WSW 34.9 WSW 0.0 302.3
09:10 4.3 89.0 1013.1 23.9 SW 31.1 SW 0.0 320.5
09:15 4.2 89.9 1013.0 24.7 SW 33.2 SW 0.0 335.1
09:20 4.5 89.2 1013.0 22.7 SW 31.1 SW 0.0 345.3
09:25 4.6 88.6 1013.1 20.2 SW 29.3 SW 0.0 363.3
09:30 4.7 88.6 1013.3 20.0 SW 31.4 SW 0.0 359.9
09:35 4.6 88.7 1013.3 22.0 SW 29.7 SW 0.0 314.1
09:40 4.0 90.6 1013.3 23.8 SW 33.5 SW 0.0 198.9
09:45 3.7 92.4 1013.1 26.0 SW 33.5 SW 0.0 191.7
09:50 3.6 92.8 1013.1 26.1 SW 35.3 SW 0.0 131.0
09:55 3.7 92.7 1013.3 23.9 SW 33.9 SW 0.0 196.2
10:00 3.9 92.0 1013.3 21.1 WSW 30.0 SW 0.0 237.1
10:05 4.2 90.8 1013.3 21.0 WSW 32.1 WSW 0.0 280.0
10:10 4.3 89.5 1013.2 21.2 WSW 31.8 SW 0.0 203.9
10:15 4.2 89.7 1013.3 18.8 WSW 30.0 WSW 0.0 139.7
10:20 4.3 88.9 1013.3 16.9 WSW 25.4 WSW 0.0 123.2
10:25 4.5 88.4 1013.3 17.3 WSW 31.4 WSW 0.0 215.1
10:30 5.0 87.3 1013.3 16.6 WSW 26.5 WSW 0.0 427.7
10:35 5.4 85.8 1013.2 18.9 WSW 31.4 WSW 0.0 445.8
10:40 5.6 85.9 1013.1 20.6 SW 27.9 SW 0.0 417.4
10:45 5.5 85.7 1013.1 21.1 WSW 28.9 WSW 0.0 379.0
10:50 5.6 85.9 1013.0 22.5 WSW 29.7 WSW 0.0 372.8
10:55 5.6 85.3 1013.0 24.1 WSW 35.3 WSW 0.0 201.8
11:00 5.3 86.0 1012.9 23.7 WSW 30.7 WSW 0.0 197.4
11:05 5.3 86.4 1012.8 25.8 WSW 36.7 WSW 0.0 347.5
11:10 5.4 86.1 1012.9 24.2 WSW 35.7 WSW 0.0 262.2
11:15 5.6 85.8 1012.9 23.9 WSW 37.1 WSW 0.0 429.4
11:20 5.8 84.8 1012.9 23.5 WSW 37.1 SW 0.0 395.4
11:25 6.1 83.5 1012.8 24.4 WSW 42.0 WSW 0.0 476.3
11:30 6.1 83.3 1012.6 24.1 WSW 42.0 WSW 0.0 267.0
11:35 6.1 83.6 1012.5 21.5 WSW 33.2 W 0.0 333.4
11:40 6.2 83.5 1012.5 20.2 WSW 30.4 WSW 0.0 263.1
11:45 6.3 82.7 1012.5 22.0 WSW 32.5 WSW 0.0 274.4
11:50 6.3 83.1 1012.4 23.9 WSW 33.5 WSW 0.0 246.7
11:55 6.6 83.3 1012.4 21.8 SW 31.1 WSW 0.0 281.9
12:00 6.7 82.8 1012.3 21.2 SW 31.4 WSW 0.0 283.1
12:05 6.6 82.9 1012.2 23.9 SW 31.4 SW 0.0 242.1
12:10 6.6 83.1 1012.2 23.8 SW 31.8 SW 0.0 207.4
12:15 6.7 83.5 1012.3 21.0 SW 29.3 SW 0.0 190.1
12:20 6.7 83.3 1012.1 22.4 SW 30.4 SW 0.0 224.4
12:25 6.8 82.9 1012.0 22.2 SW 30.7 SW 0.0 242.5
12:30 7.0 81.5 1012.0 21.8 SW 30.4 WSW 0.0 234.2
12:35 7.1 81.0 1011.9 16.8 SW 23.3 SW 0.0 173.1
12:40 6.9 82.2 1011.6 16.0 SW 20.5 SW 0.0 161.6
12:45 6.8 83.2 1011.2 13.6 SSW 20.8 SW 0.0 177.2
12:50 6.9 82.9 1011.4 18.3 SW 24.0 SW 0.0 172.5
12:55 6.8 83.3 1011.4 20.9 SW 28.9 WSW 0.0 145.3
13:00 6.8 84.3 1011.6 20.7 SW 30.4 WSW 0.0 127.7
13:05 6.7 84.7 1011.5 19.0 SW 27.9 SW 0.0 113.5
13:10 6.7 84.9 1011.7 20.5 SW 28.6 SW 0.0 105.4
13:15 6.6 85.2 1011.7 19.7 SW 26.8 WSW 0.0 98.4
13:20 6.5 85.6 1011.7 23.1 SW 31.1 SW 0.0 82.8
13:25 6.5 85.5 1011.8 23.4 WSW 29.7 WSW 0.0 79.9
13:30 6.5 85.3 1011.8 21.6 SW 27.5 WSW 0.0 78.0
13:35 6.5 85.5 1011.7 18.1 SW 25.1 SW 0.0 66.7
13:40 6.5 85.8 1011.8 16.1 SW 21.5 SW 0.0 54.8
13:45 6.4 85.9 1011.7 17.6 SW 24.4 SW 0.0 48.7
13:50 6.4 86.0 1011.7 20.1 SW 27.5 SW 0.0 48.7
13:55 6.3 86.5 1011.5 20.7 SW 28.9 SW 0.0 50.2
14:00 6.3 86.6 1011.6 21.7 SW 28.6 SW 0.0 55.5
14:05 6.3 86.8 1011.8 24.6 SW 32.1 SW 0.0 58.1
14:10 6.3 87.0 1011.8 22.6 WSW 32.1 SW 0.0 58.8
14:15 6.3 87.3 1011.7 19.2 WSW 24.4 WSW 0.0 57.3
14:20 6.3 87.2 1011.5 20.1 SW 25.1 SW 0.0 54.4
14:25 6.3 87.1 1011.3 20.1 SW 26.5 SW 0.0 53.6
14:30 6.3 87.0 1011.3 21.9 SW 28.2 SW 0.0 52.1
14:35 6.3 86.8 1011.5 20.0 SW 27.2 SW 0.0 52.2
14:40 6.3 86.9 1011.5 20.6 WSW 27.5 SW 0.0 51.8
14:45 6.3 87.2 1011.5 19.2 WSW 26.1 SW 0.0 58.0
14:50 6.2 87.4 1011.3 17.4 SW 23.3 SW 0.0 59.0
14:55 6.3 87.1 1011.3 18.2 SW 23.3 WSW 0.0 56.3
15:00 6.2 87.6 1011.3 16.7 SW 23.3 SW 0.0 58.1
15:05 6.2 87.3 1011.3 19.3 SW 25.4 WSW 0.0 58.9
15:10 6.2 87.3 1011.3 20.8 SW 28.2 WSW 0.0 52.2
15:15 6.3 86.8 1011.3 23.1 SW 33.2 SW 0.0 43.8
15:20 6.3 86.7 1011.4 20.3 SW 26.8 SW 0.0 45.9
15:25 6.2 87.1 1011.3 21.4 SW 26.8 WSW 0.0 48.1
15:30 6.1 87.9 1011.4 22.3 SW 28.6 WSW 0.0 42.4
15:35 6.1 87.7 1011.2 21.2 SW 28.2 SW 0.0 35.0
15:40 6.1 87.4 1011.2 23.8 SW 30.0 SW 0.0 27.8
15:45 6.2 86.9 1011.3 25.1 SW 31.8 SW 0.0 23.4
Màxima 7.1 95.9 1016.1 33.0 WSW 44.1 SW 0.0 476.3
Mínima 1.8 74.4 1011.2
Total 0.0